Chitose Air Base, Japan

3:27 PM JST on June 30, 2015 (GMT +0900)
New Chitose | | Change Station
CLOSE
Current Station
Airport
Location: Chitose AB,
Elevation: 98 ft
Nearby Weather Stations

Elev 98 ft 42.77 °N, 141.69 °E | Updated 27 minutes ago

Light Rain Showers
Light Showers Rain
61 °F
Feels Like 61 °F
N
14
Wind Variable Wind from SSE

Today
High -- | Low -- °F
--% Chance of Precip.
Yesterday
High -- | Low -- °F
Precip. -- in
3:57 AM 7:15 PM
Waxing Gibbous, 96% visible
Pressure 29.62 in
Visibility 5.0 miles
Clouds Few 400 ft
Scattered Clouds 500 ft
Mostly Cloudy 700 ft
Dew Point 57 °F
Humidity 88%
Rainfall 0.00 in
Snow Depth Not available.
UV 3 out of 12
Pollen Not available.
Air Quality Not available.
Flu Activity Not available.
METAR RJCC 300600Z 16012KT 8000 -SHRA FEW004 SCT005 BKN007 16/14 Q1003 RMK 1ST004 3ST005 6ST007 A2962

More Conditions Fewer Conditions

Pressure 29.62 in
Visibility 5.0 miles
Clouds Few 400 ft
Scattered Clouds 500 ft
Mostly Cloudy 700 ft
Dew Point 57 °F
Humidity 88%
Rainfall 0.00 in
Snow Depth Not available.
UV 3 out of 12
Pollen Not available.
Air Quality Not available.
Flu Activity Not available.
METAR RJCC 300600Z 16012KT 8000 -SHRA FEW004 SCT005 BKN007 16/14 Q1003 RMK 1ST004 3ST005 6ST007 A2962

More Conditions Fewer Conditions

10-Day Weather Forecast

×

Almanac

Astronomy

Jun. 30, 2015 Rise Set
Actual Time
Civil Twilight
Nautical Twilight
Astronomical Twilight
Moon
Length of Visible Light
Length of Day
Tomorrow will be .
, % of the Moon is Illuminated

Today's Extremes

Country Highs Country Lows

Community

WunderPhotos

Upload Photos

1,833,971 photos uploaded!

WunderBlogs® & News

Nearby

Air Quality

  Air Quality AQ Index Pollutant
Not available.

Snow Depth

Station Depth Elevation

Earthquake Activity

City Distance Mag. Time & Date
Minimum magnitude displayed is 2.5.

Coastal Water Temperatures

Place Temperature

Stations

Nearby Weather Stations

Station Location Temp. Windchill Dew Point Humidity Wind Precip. Elev Updated Type